Abisko, Sweden

3:09 AM CET on December 22, 2014 (GMT +0100)
Abisko Utsikten | Change Station
CLOSE
Current Station
Personal Weather Station
Location: Abisko, KIRUNA
Elevation: 1200 ft
Nearby Weather Stations

Elev 1200 ft 68.35 °N, 18.83 °E | Updated 13 seconds ago

Partly Cloudy
Partly Cloudy
23.0 °F
Feels Like 18 °F
N
4.0
Wind Variable Wind from ESE
Gusts 11.0 mph

Today
High -- | Low -- °F
--% Chance of Precip.
Yesterday
High -- | Low -- °F
Precip. -- in
11:10 AM 12:15 PM
New Moon, 0% visible
Pressure 29.42 in
Visibility 6.2 miles
Clouds Few 4000 ft
Windchill 18 °F
Dew Point 15 °F
Humidity 70%
Rainfall 0.00 in
Snow Depth Not available.
UV 0 out of 12
Pollen Not available.
Air Quality Not available.
Flu Activity Not available.
METAR ENDU 220150Z VRB01KT 9999 FEW040 M22/M25 Q0996

More Conditions Fewer Conditions

Pressure 29.42 in
Visibility 6.2 miles
Clouds Few 4000 ft
Windchill 18 °F
Dew Point 15 °F
Humidity 70%
Rainfall 0.00 in
Snow Depth Not available.
UV 0 out of 12
Pollen Not available.
Air Quality Not available.
Flu Activity Not available.
METAR ENDU 220150Z VRB01KT 9999 FEW040 M22/M25 Q0996

More Conditions Fewer Conditions

10-Day Weather Forecast

Almanac

Astronomy

Dec. 22, 2014 Rise Set
Actual Time
Civil Twilight
Nautical Twilight
Astronomical Twilight
Moon
Length of Visible Light
Length of Day
Tomorrow will be .
, % of the Moon is Illuminated

Today's Extremes

Country Highs Country Lows

Community

WunderPhotos

Upload Photos

1,779,520 photos uploaded!

WunderBlogs® & News

Nearby

Air Quality

  Air Quality AQ Index Pollutant
Not available.

Snow Depth

Station Depth Elevation

Earthquake Activity

City Distance Mag. Time & Date
Minimum magnitude displayed is 2.5.

Coastal Water Temperatures

Place Temperature

Nearby Weather Stations